sensor_id;sensor_type;location;lat;lon;timestamp;P1;durP1;ratioP1;P2;durP2;ratioP2
37425;SDS011;23285;50.180;7.036;2023-04-25T00:00:41;6.17;;;5.57;;
37425;SDS011;23285;50.180;7.036;2023-04-25T00:03:28;6.70;;;5.97;;
37425;SDS011;23285;50.180;7.036;2023-04-25T00:06:14;6.70;;;5.83;;
37425;SDS011;23285;50.180;7.036;2023-04-25T00:09:02;5.87;;;5.37;;
37425;SDS011;23285;50.180;7.036;2023-04-25T00:11:51;5.67;;;5.13;;
37425;SDS011;23285;50.180;7.036;2023-04-25T00:14:38;6.10;;;5.60;;
37425;SDS011;23285;50.180;7.036;2023-04-25T00:17:25;5.70;;;5.20;;
37425;SDS011;23285;50.180;7.036;2023-04-25T00:20:12;5.73;;;5.10;;
37425;SDS011;23285;50.180;7.036;2023-04-25T00:22:59;5.17;;;4.77;;
37425;SDS011;23285;50.180;7.036;2023-04-25T00:25:46;5.23;;;4.73;;
37425;SDS011;23285;50.180;7.036;2023-04-25T00:28:33;5.57;;;5.03;;
37425;SDS011;23285;50.180;7.036;2023-04-25T00:31:19;5.43;;;4.93;;
37425;SDS011;23285;50.180;7.036;2023-04-25T00:34:07;4.80;;;4.40;;
37425;SDS011;23285;50.180;7.036;2023-04-25T00:36:53;4.90;;;4.50;;
37425;SDS011;23285;50.180;7.036;2023-04-25T00:39:41;4.10;;;3.80;;
37425;SDS011;23285;50.180;7.036;2023-04-25T00:42:27;4.70;;;4.27;;
37425;SDS011;23285;50.180;7.036;2023-04-25T00:45:15;5.37;;;4.87;;
37425;SDS011;23285;50.180;7.036;2023-04-25T00:48:02;5.23;;;4.77;;
37425;SDS011;23285;50.180;7.036;2023-04-25T00:50:52;5.67;;;4.67;;
37425;SDS011;23285;50.180;7.036;2023-04-25T00:53:40;5.03;;;4.53;;
37425;SDS011;23285;50.180;7.036;2023-04-25T00:56:26;5.43;;;4.90;;
37425;SDS011;23285;50.180;7.036;2023-04-25T00:59:13;4.57;;;4.17;;
37425;SDS011;23285;50.180;7.036;2023-04-25T01:02:00;4.73;;;4.33;;
37425;SDS011;23285;50.180;7.036;2023-04-25T01:04:47;4.93;;;4.53;;
37425;SDS011;23285;50.180;7.036;2023-04-25T01:07:36;4.50;;;4.10;;
37425;SDS011;23285;50.180;7.036;2023-04-25T01:10:22;4.63;;;4.23;;
37425;SDS011;23285;50.180;7.036;2023-04-25T01:13:09;4.73;;;4.33;;
37425;SDS011;23285;50.180;7.036;2023-04-25T01:15:55;4.47;;;4.07;;
37425;SDS011;23285;50.180;7.036;2023-04-25T01:18:42;5.43;;;4.90;;
37425;SDS011;23285;50.180;7.036;2023-04-25T01:21:30;4.60;;;4.20;;
37425;SDS011;23285;50.180;7.036;2023-04-25T01:24:17;5.30;;;4.80;;
37425;SDS011;23285;50.180;7.036;2023-04-25T01:27:03;4.77;;;4.37;;
37425;SDS011;23285;50.180;7.036;2023-04-25T01:29:51;4.70;;;4.30;;
37425;SDS011;23285;50.180;7.036;2023-04-25T01:32:39;4.87;;;4.47;;
37425;SDS011;23285;50.180;7.036;2023-04-25T01:35:26;5.50;;;5.00;;
37425;SDS011;23285;50.180;7.036;2023-04-25T01:38:15;5.10;;;4.70;;
37425;SDS011;23285;50.180;7.036;2023-04-25T01:41:01;5.13;;;4.70;;
37425;SDS011;23285;50.180;7.036;2023-04-25T01:43:48;5.33;;;4.90;;
37425;SDS011;23285;50.180;7.036;2023-04-25T01:46:34;5.97;;;5.47;;
37425;SDS011;23285;50.180;7.036;2023-04-25T01:49:22;5.50;;;5.00;;
37425;SDS011;23285;50.180;7.036;2023-04-25T01:52:09;5.33;;;4.83;;
37425;SDS011;23285;50.180;7.036;2023-04-25T01:54:57;5.53;;;5.03;;
37425;SDS011;23285;50.180;7.036;2023-04-25T01:57:46;4.67;;;4.27;;
37425;SDS011;23285;50.180;7.036;2023-04-25T02:00:33;5.43;;;4.67;;
37425;SDS011;23285;50.180;7.036;2023-04-25T02:03:21;4.77;;;4.37;;
37425;SDS011;23285;50.180;7.036;2023-04-25T02:06:08;5.50;;;5.00;;
37425;SDS011;23285;50.180;7.036;2023-04-25T02:08:59;4.40;;;4.00;;
37425;SDS011;23285;50.180;7.036;2023-04-25T02:11:47;5.87;;;4.50;;
37425;SDS011;23285;50.180;7.036;2023-04-25T02:14:46;6.83;;;4.90;;
37425;SDS011;23285;50.180;7.036;2023-04-25T02:17:44;5.43;;;4.93;;
37425;SDS011;23285;50.180;7.036;2023-04-25T02:20:30;6.23;;;5.60;;
37425;SDS011;23285;50.180;7.036;2023-04-25T02:23:17;6.50;;;5.90;;
37425;SDS011;23285;50.180;7.036;2023-04-25T02:26:03;7.60;;;6.90;;
37425;SDS011;23285;50.180;7.036;2023-04-25T02:28:52;6.43;;;5.83;;
37425;SDS011;23285;50.180;7.036;2023-04-25T02:31:38;6.30;;;5.43;;
37425;SDS011;23285;50.180;7.036;2023-04-25T02:34:24;7.20;;;5.70;;
37425;SDS011;23285;50.180;7.036;2023-04-25T02:37:10;6.50;;;5.90;;
37425;SDS011;23285;50.180;7.036;2023-04-25T02:39:57;6.07;;;5.50;;
37425;SDS011;23285;50.180;7.036;2023-04-25T02:42:44;8.73;;;7.83;;
37425;SDS011;23285;50.180;7.036;2023-04-25T02:45:32;9.60;;;8.63;;
37425;SDS011;23285;50.180;7.036;2023-04-25T02:48:19;8.50;;;7.70;;
37425;SDS011;23285;50.180;7.036;2023-04-25T02:51:07;11.67;;;8.43;;
37425;SDS011;23285;50.180;7.036;2023-04-25T02:53:53;9.87;;;8.90;;
37425;SDS011;23285;50.180;7.036;2023-04-25T02:56:40;10.90;;;9.80;;
37425;SDS011;23285;50.180;7.036;2023-04-25T02:59:32;12.40;;;9.67;;
37425;SDS011;23285;50.180;7.036;2023-04-25T03:02:20;11.87;;;10.77;;
37425;SDS011;23285;50.180;7.036;2023-04-25T03:05:06;11.37;;;10.20;;
37425;SDS011;23285;50.180;7.036;2023-04-25T03:07:53;10.93;;;9.77;;
37425;SDS011;23285;50.180;7.036;2023-04-25T03:10:40;11.27;;;10.17;;
37425;SDS011;23285;50.180;7.036;2023-04-25T03:13:28;12.20;;;11.00;;
37425;SDS011;23285;50.180;7.036;2023-04-25T03:16:15;11.83;;;10.63;;
37425;SDS011;23285;50.180;7.036;2023-04-25T03:19:03;10.90;;;9.90;;
37425;SDS011;23285;50.180;7.036;2023-04-25T03:21:50;8.70;;;7.80;;
37425;SDS011;23285;50.180;7.036;2023-04-25T03:24:37;7.90;;;6.97;;
37425;SDS011;23285;50.180;7.036;2023-04-25T03:27:24;7.53;;;6.83;;
37425;SDS011;23285;50.180;7.036;2023-04-25T03:30:11;8.37;;;7.57;;
37425;SDS011;23285;50.180;7.036;2023-04-25T03:32:59;9.00;;;8.10;;
37425;SDS011;23285;50.180;7.036;2023-04-25T03:35:47;7.47;;;6.77;;
37425;SDS011;23285;50.180;7.036;2023-04-25T03:38:35;7.00;;;6.37;;
37425;SDS011;23285;50.180;7.036;2023-04-25T03:41:22;8.17;;;6.77;;
37425;SDS011;23285;50.180;7.036;2023-04-25T03:44:16;7.57;;;6.87;;
37425;SDS011;23285;50.180;7.036;2023-04-25T03:47:03;6.67;;;5.97;;
37425;SDS011;23285;50.180;7.036;2023-04-25T03:49:51;6.73;;;6.13;;
37425;SDS011;23285;50.180;7.036;2023-04-25T03:52:42;9.73;;;6.23;;
37425;SDS011;23285;50.180;7.036;2023-04-25T03:55:29;7.90;;;7.10;;
37425;SDS011;23285;50.180;7.036;2023-04-25T03:58:16;7.33;;;6.60;;
37425;SDS011;23285;50.180;7.036;2023-04-25T04:01:02;9.07;;;8.13;;
37425;SDS011;23285;50.180;7.036;2023-04-25T04:03:52;14.77;;;12.03;;
37425;SDS011;23285;50.180;7.036;2023-04-25T04:06:39;12.63;;;10.23;;
37425;SDS011;23285;50.180;7.036;2023-04-25T04:09:33;13.13;;;10.10;;
37425;SDS011;23285;50.180;7.036;2023-04-25T04:12:23;11.43;;;10.23;;
37425;SDS011;23285;50.180;7.036;2023-04-25T04:15:10;10.97;;;9.47;;
37425;SDS011;23285;50.180;7.036;2023-04-25T04:17:57;11.23;;;10.03;;
37425;SDS011;23285;50.180;7.036;2023-04-25T04:20:46;12.27;;;9.27;;
37425;SDS011;23285;50.180;7.036;2023-04-25T04:23:33;12.00;;;8.83;;
37425;SDS011;23285;50.180;7.036;2023-04-25T04:26:21;9.10;;;8.20;;
37425;SDS011;23285;50.180;7.036;2023-04-25T04:29:21;10.37;;;8.20;;
37425;SDS011;23285;50.180;7.036;2023-04-25T04:32:18;11.77;;;8.70;;
37425;SDS011;23285;50.180;7.036;2023-04-25T04:35:05;10.23;;;8.27;;
37425;SDS011;23285;50.180;7.036;2023-04-25T04:37:54;12.77;;;7.80;;
37425;SDS011;23285;50.180;7.036;2023-04-25T04:40:43;11.17;;;7.73;;
37425;SDS011;23285;50.180;7.036;2023-04-25T04:43:40;14.93;;;8.00;;
37425;SDS011;23285;50.180;7.036;2023-04-25T04:46:46;12.07;;;7.70;;
37425;SDS011;23285;50.180;7.036;2023-04-25T04:49:55;13.93;;;7.23;;
37425;SDS011;23285;50.180;7.036;2023-04-25T04:53:01;12.67;;;7.90;;
37425;SDS011;23285;50.180;7.036;2023-04-25T04:56:11;14.20;;;7.70;;
37425;SDS011;23285;50.180;7.036;2023-04-25T04:59:13;12.83;;;7.60;;
37425;SDS011;23285;50.180;7.036;2023-04-25T05:02:17;16.23;;;8.50;;
37425;SDS011;23285;50.180;7.036;2023-04-25T05:05:09;15.43;;;7.93;;
37425;SDS011;23285;50.180;7.036;2023-04-25T05:08:14;17.30;;;8.00;;
37425;SDS011;23285;50.180;7.036;2023-04-25T05:11:24;14.47;;;7.97;;
37425;SDS011;23285;50.180;7.036;2023-04-25T05:14:33;18.10;;;8.77;;
37425;SDS011;23285;50.180;7.036;2023-04-25T05:17:30;16.43;;;8.70;;
37425;SDS011;23285;50.180;7.036;2023-04-25T05:20:34;15.20;;;8.40;;
37425;SDS011;23285;50.180;7.036;2023-04-25T05:23:39;14.53;;;9.67;;
37425;SDS011;23285;50.180;7.036;2023-04-25T05:26:44;17.67;;;9.43;;
37425;SDS011;23285;50.180;7.036;2023-04-25T05:30:01;16.80;;;8.63;;
37425;SDS011;23285;50.180;7.036;2023-04-25T05:33:07;12.10;;;8.33;;
37425;SDS011;23285;50.180;7.036;2023-04-25T05:35:53;12.03;;;7.77;;
37425;SDS011;23285;50.180;7.036;2023-04-25T05:38:41;12.87;;;7.83;;
37425;SDS011;23285;50.180;7.036;2023-04-25T05:41:48;11.43;;;5.70;;
37425;SDS011;23285;50.180;7.036;2023-04-25T05:44:54;8.90;;;5.97;;
37425;SDS011;23285;50.180;7.036;2023-04-25T05:47:49;10.33;;;5.27;;
37425;SDS011;23285;50.180;7.036;2023-04-25T05:50:45;10.67;;;5.77;;
37425;SDS011;23285;50.180;7.036;2023-04-25T05:53:42;11.50;;;5.87;;
37425;SDS011;23285;50.180;7.036;2023-04-25T05:56:30;11.27;;;5.80;;
37425;SDS011;23285;50.180;7.036;2023-04-25T05:59:17;15.13;;;5.43;;
37425;SDS011;23285;50.180;7.036;2023-04-25T06:02:03;10.00;;;5.10;;
37425;SDS011;23285;50.180;7.036;2023-04-25T06:04:54;11.10;;;5.37;;
37425;SDS011;23285;50.180;7.036;2023-04-25T06:07:41;8.60;;;4.70;;
37425;SDS011;23285;50.180;7.036;2023-04-25T06:10:28;10.30;;;4.60;;
37425;SDS011;23285;50.180;7.036;2023-04-25T06:13:14;10.77;;;4.53;;
37425;SDS011;23285;50.180;7.036;2023-04-25T06:16:01;7.73;;;3.90;;
37425;SDS011;23285;50.180;7.036;2023-04-25T06:18:47;6.73;;;3.60;;
37425;SDS011;23285;50.180;7.036;2023-04-25T06:21:35;10.47;;;3.80;;
37425;SDS011;23285;50.180;7.036;2023-04-25T06:24:21;6.50;;;3.30;;
37425;SDS011;23285;50.180;7.036;2023-04-25T06:27:08;10.00;;;3.83;;
37425;SDS011;23285;50.180;7.036;2023-04-25T06:29:55;6.67;;;3.20;;
37425;SDS011;23285;50.180;7.036;2023-04-25T06:32:41;6.43;;;3.03;;
37425;SDS011;23285;50.180;7.036;2023-04-25T06:35:28;4.33;;;2.80;;
37425;SDS011;23285;50.180;7.036;2023-04-25T06:38:16;6.43;;;3.10;;
37425;SDS011;23285;50.180;7.036;2023-04-25T06:41:06;7.53;;;3.70;;
37425;SDS011;23285;50.180;7.036;2023-04-25T06:43:54;7.03;;;3.20;;
37425;SDS011;23285;50.180;7.036;2023-04-25T06:46:45;7.67;;;3.53;;
37425;SDS011;23285;50.180;7.036;2023-04-25T06:49:32;9.00;;;3.50;;
37425;SDS011;23285;50.180;7.036;2023-04-25T06:52:20;6.13;;;3.30;;
37425;SDS011;23285;50.180;7.036;2023-04-25T06:55:08;5.47;;;3.17;;
37425;SDS011;23285;50.180;7.036;2023-04-25T06:58:30;8.37;;;3.80;;
37425;SDS011;23285;50.180;7.036;2023-04-25T07:01:37;6.10;;;3.10;;
37425;SDS011;23285;50.180;7.036;2023-04-25T07:04:30;7.83;;;3.20;;
37425;SDS011;23285;50.180;7.036;2023-04-25T07:07:17;6.33;;;2.87;;
37425;SDS011;23285;50.180;7.036;2023-04-25T07:10:12;12.40;;;3.53;;
37425;SDS011;23285;50.180;7.036;2023-04-25T07:12:58;8.93;;;3.43;;
37425;SDS011;23285;50.180;7.036;2023-04-25T07:15:44;6.17;;;3.67;;
37425;SDS011;23285;50.180;7.036;2023-04-25T07:18:33;7.93;;;3.63;;
37425;SDS011;23285;50.180;7.036;2023-04-25T07:21:19;6.73;;;3.57;;
37425;SDS011;23285;50.180;7.036;2023-04-25T07:24:08;6.03;;;3.00;;
37425;SDS011;23285;50.180;7.036;2023-04-25T07:27:00;9.87;;;3.93;;
37425;SDS011;23285;50.180;7.036;2023-04-25T07:29:52;7.00;;;3.30;;
37425;SDS011;23285;50.180;7.036;2023-04-25T07:32:41;6.70;;;3.50;;
37425;SDS011;23285;50.180;7.036;2023-04-25T07:35:28;10.77;;;3.37;;
37425;SDS011;23285;50.180;7.036;2023-04-25T07:38:14;8.27;;;3.67;;
37425;SDS011;23285;50.180;7.036;2023-04-25T07:41:01;7.10;;;2.90;;
37425;SDS011;23285;50.180;7.036;2023-04-25T07:43:50;8.93;;;3.30;;
37425;SDS011;23285;50.180;7.036;2023-04-25T07:46:38;9.20;;;3.67;;
37425;SDS011;23285;50.180;7.036;2023-04-25T07:49:25;10.03;;;3.90;;
37425;SDS011;23285;50.180;7.036;2023-04-25T07:52:12;9.70;;;3.50;;
37425;SDS011;23285;50.180;7.036;2023-04-25T07:55:04;9.57;;;3.57;;
37425;SDS011;23285;50.180;7.036;2023-04-25T07:58:11;12.40;;;3.80;;
37425;SDS011;23285;50.180;7.036;2023-04-25T08:01:02;9.47;;;3.87;;
37425;SDS011;23285;50.180;7.036;2023-04-25T08:04:09;14.00;;;4.13;;
37425;SDS011;23285;50.180;7.036;2023-04-25T08:07:07;10.27;;;4.20;;
37425;SDS011;23285;50.180;7.036;2023-04-25T08:10:01;9.23;;;3.10;;
37425;SDS011;23285;50.180;7.036;2023-04-25T08:12:51;7.83;;;3.27;;
37425;SDS011;23285;50.180;7.036;2023-04-25T08:15:38;9.23;;;3.43;;
37425;SDS011;23285;50.180;7.036;2023-04-25T08:18:26;7.47;;;3.57;;
37425;SDS011;23285;50.180;7.036;2023-04-25T08:21:12;8.87;;;4.23;;
37425;SDS011;23285;50.180;7.036;2023-04-25T08:24:00;10.27;;;3.40;;
37425;SDS011;23285;50.180;7.036;2023-04-25T08:26:50;8.60;;;3.47;;
37425;SDS011;23285;50.180;7.036;2023-04-25T08:29:41;8.33;;;3.40;;
37425;SDS011;23285;50.180;7.036;2023-04-25T08:32:28;7.67;;;3.00;;
37425;SDS011;23285;50.180;7.036;2023-04-25T08:35:34;9.53;;;3.03;;
37425;SDS011;23285;50.180;7.036;2023-04-25T08:38:20;8.70;;;3.40;;
37425;SDS011;23285;50.180;7.036;2023-04-25T08:41:07;7.33;;;3.47;;
37425;SDS011;23285;50.180;7.036;2023-04-25T08:43:54;10.33;;;3.17;;
37425;SDS011;23285;50.180;7.036;2023-04-25T08:46:44;9.73;;;3.63;;
37425;SDS011;23285;50.180;7.036;2023-04-25T08:49:43;7.50;;;2.93;;
37425;SDS011;23285;50.180;7.036;2023-04-25T08:52:35;10.77;;;3.13;;
37425;SDS011;23285;50.180;7.036;2023-04-25T08:55:23;11.00;;;3.40;;
37425;SDS011;23285;50.180;7.036;2023-04-25T08:58:14;8.13;;;3.10;;
37425;SDS011;23285;50.180;7.036;2023-04-25T09:01:01;10.30;;;2.83;;
37425;SDS011;23285;50.180;7.036;2023-04-25T09:03:54;9.37;;;3.30;;
37425;SDS011;23285;50.180;7.036;2023-04-25T09:06:41;9.50;;;3.10;;
37425;SDS011;23285;50.180;7.036;2023-04-25T09:09:29;13.27;;;4.00;;
37425;SDS011;23285;50.180;7.036;2023-04-25T09:12:15;9.47;;;3.60;;
37425;SDS011;23285;50.180;7.036;2023-04-25T09:15:04;12.23;;;3.83;;
37425;SDS011;23285;50.180;7.036;2023-04-25T09:18:12;8.57;;;3.63;;
37425;SDS011;23285;50.180;7.036;2023-04-25T09:21:04;12.60;;;3.73;;
37425;SDS011;23285;50.180;7.036;2023-04-25T09:23:52;8.03;;;3.33;;
37425;SDS011;23285;50.180;7.036;2023-04-25T09:26:41;13.10;;;3.77;;
37425;SDS011;23285;50.180;7.036;2023-04-25T09:29:28;11.00;;;3.30;;
37425;SDS011;23285;50.180;7.036;2023-04-25T09:32:17;12.03;;;4.13;;
37425;SDS011;23285;50.180;7.036;2023-04-25T09:35:06;9.53;;;3.83;;
37425;SDS011;23285;50.180;7.036;2023-04-25T09:37:53;12.17;;;3.37;;
37425;SDS011;23285;50.180;7.036;2023-04-25T09:41:00;8.70;;;3.00;;
37425;SDS011;23285;50.180;7.036;2023-04-25T09:43:58;10.67;;;3.53;;
37425;SDS011;23285;50.180;7.036;2023-04-25T09:46:49;14.63;;;3.60;;
37425;SDS011;23285;50.180;7.036;2023-04-25T09:49:40;7.90;;;3.50;;
37425;SDS011;23285;50.180;7.036;2023-04-25T09:52:30;11.90;;;3.70;;
37425;SDS011;23285;50.180;7.036;2023-04-25T09:55:35;7.77;;;3.10;;
37425;SDS011;23285;50.180;7.036;2023-04-25T09:58:22;10.93;;;2.83;;
37425;SDS011;23285;50.180;7.036;2023-04-25T10:01:12;7.10;;;3.43;;
37425;SDS011;23285;50.180;7.036;2023-04-25T10:04:15;9.13;;;3.17;;
37425;SDS011;23285;50.180;7.036;2023-04-25T10:07:14;13.27;;;3.17;;
37425;SDS011;23285;50.180;7.036;2023-04-25T10:10:03;9.03;;;2.67;;
37425;SDS011;23285;50.180;7.036;2023-04-25T10:12:51;9.90;;;2.90;;
37425;SDS011;23285;50.180;7.036;2023-04-25T10:15:38;9.07;;;2.90;;
37425;SDS011;23285;50.180;7.036;2023-04-25T10:18:27;8.63;;;3.03;;
37425;SDS011;23285;50.180;7.036;2023-04-25T10:21:14;57.87;;;5.70;;
37425;SDS011;23285;50.180;7.036;2023-04-25T10:24:02;11.37;;;2.67;;
37425;SDS011;23285;50.180;7.036;2023-04-25T10:26:49;6.17;;;3.00;;
37425;SDS011;23285;50.180;7.036;2023-04-25T10:29:36;10.23;;;2.90;;
37425;SDS011;23285;50.180;7.036;2023-04-25T10:32:24;6.00;;;2.40;;
37425;SDS011;23285;50.180;7.036;2023-04-25T10:35:13;10.10;;;2.87;;
37425;SDS011;23285;50.180;7.036;2023-04-25T10:38:03;8.47;;;2.60;;
37425;SDS011;23285;50.180;7.036;2023-04-25T10:41:02;5.93;;;2.37;;
37425;SDS011;23285;50.180;7.036;2023-04-25T10:43:49;6.03;;;2.43;;
37425;SDS011;23285;50.180;7.036;2023-04-25T10:46:44;8.50;;;2.63;;
37425;SDS011;23285;50.180;7.036;2023-04-25T10:49:32;10.63;;;2.83;;
37425;SDS011;23285;50.180;7.036;2023-04-25T10:52:25;10.00;;;2.40;;
37425;SDS011;23285;50.180;7.036;2023-04-25T10:55:14;19.80;;;2.93;;
37425;SDS011;23285;50.180;7.036;2023-04-25T10:58:00;7.67;;;2.53;;
37425;SDS011;23285;50.180;7.036;2023-04-25T11:00:48;6.77;;;2.40;;
37425;SDS011;23285;50.180;7.036;2023-04-25T11:03:38;6.03;;;2.13;;
37425;SDS011;23285;50.180;7.036;2023-04-25T11:06:27;7.30;;;2.67;;
37425;SDS011;23285;50.180;7.036;2023-04-25T11:09:29;7.23;;;2.40;;
37425;SDS011;23285;50.180;7.036;2023-04-25T11:12:15;7.30;;;2.60;;
37425;SDS011;23285;50.180;7.036;2023-04-25T11:15:02;6.87;;;2.37;;
37425;SDS011;23285;50.180;7.036;2023-04-25T11:17:50;8.70;;;2.43;;
37425;SDS011;23285;50.180;7.036;2023-04-25T11:20:37;8.33;;;2.50;;
37425;SDS011;23285;50.180;7.036;2023-04-25T11:23:23;5.77;;;2.63;;
37425;SDS011;23285;50.180;7.036;2023-04-25T11:26:12;6.53;;;2.47;;
37425;SDS011;23285;50.180;7.036;2023-04-25T11:28:59;6.93;;;2.07;;
37425;SDS011;23285;50.180;7.036;2023-04-25T11:31:45;4.63;;;2.10;;
37425;SDS011;23285;50.180;7.036;2023-04-25T11:34:32;5.00;;;1.77;;
37425;SDS011;23285;50.180;7.036;2023-04-25T11:37:19;5.67;;;1.90;;
37425;SDS011;23285;50.180;7.036;2023-04-25T11:40:07;4.47;;;1.90;;
37425;SDS011;23285;50.180;7.036;2023-04-25T11:42:55;6.90;;;2.37;;
37425;SDS011;23285;50.180;7.036;2023-04-25T11:45:46;8.00;;;1.93;;
37425;SDS011;23285;50.180;7.036;2023-04-25T11:48:36;3.17;;;2.00;;
37425;SDS011;23285;50.180;7.036;2023-04-25T11:51:23;4.07;;;2.13;;
37425;SDS011;23285;50.180;7.036;2023-04-25T11:54:09;4.63;;;2.10;;
37425;SDS011;23285;50.180;7.036;2023-04-25T11:56:56;7.07;;;2.27;;
37425;SDS011;23285;50.180;7.036;2023-04-25T11:59:43;5.17;;;2.03;;
37425;SDS011;23285;50.180;7.036;2023-04-25T12:02:30;8.13;;;2.43;;
37425;SDS011;23285;50.180;7.036;2023-04-25T12:05:16;9.10;;;2.70;;
37425;SDS011;23285;50.180;7.036;2023-04-25T12:08:10;5.63;;;2.10;;
37425;SDS011;23285;50.180;7.036;2023-04-25T12:10:58;6.97;;;2.90;;
37425;SDS011;23285;50.180;7.036;2023-04-25T12:13:44;5.93;;;2.03;;
37425;SDS011;23285;50.180;7.036;2023-04-25T12:19:33;5.60;;;2.40;;
37425;SDS011;23285;50.180;7.036;2023-04-25T12:22:20;5.53;;;2.50;;
37425;SDS011;23285;50.180;7.036;2023-04-25T12:25:09;7.50;;;2.50;;
37425;SDS011;23285;50.180;7.036;2023-04-25T12:28:08;5.80;;;1.80;;
37425;SDS011;23285;50.180;7.036;2023-04-25T12:30:56;7.27;;;2.30;;
37425;SDS011;23285;50.180;7.036;2023-04-25T12:33:43;5.50;;;2.47;;
37425;SDS011;23285;50.180;7.036;2023-04-25T12:36:33;4.93;;;2.63;;
37425;SDS011;23285;50.180;7.036;2023-04-25T12:39:20;4.70;;;2.03;;
37425;SDS011;23285;50.180;7.036;2023-04-25T12:42:07;7.30;;;2.67;;
37425;SDS011;23285;50.180;7.036;2023-04-25T12:44:56;8.50;;;2.63;;
37425;SDS011;23285;50.180;7.036;2023-04-25T12:47:42;9.03;;;2.40;;
37425;SDS011;23285;50.180;7.036;2023-04-25T12:50:28;6.00;;;2.33;;
37425;SDS011;23285;50.180;7.036;2023-04-25T12:53:16;4.17;;;2.33;;
37425;SDS011;23285;50.180;7.036;2023-04-25T12:56:03;3.30;;;2.40;;
37425;SDS011;23285;50.180;7.036;2023-04-25T12:58:49;6.63;;;2.20;;
37425;SDS011;23285;50.180;7.036;2023-04-25T13:01:36;6.03;;;2.23;;
37425;SDS011;23285;50.180;7.036;2023-04-25T13:04:23;5.33;;;2.30;;
37425;SDS011;23285;50.180;7.036;2023-04-25T13:07:09;10.13;;;3.07;;
37425;SDS011;23285;50.180;7.036;2023-04-25T13:09:57;8.50;;;2.50;;
37425;SDS011;23285;50.180;7.036;2023-04-25T13:12:44;6.93;;;3.00;;
37425;SDS011;23285;50.180;7.036;2023-04-25T13:15:31;7.20;;;2.43;;
37425;SDS011;23285;50.180;7.036;2023-04-25T13:18:18;6.63;;;2.50;;
37425;SDS011;23285;50.180;7.036;2023-04-25T13:21:04;5.37;;;2.30;;
37425;SDS011;23285;50.180;7.036;2023-04-25T13:23:51;5.87;;;2.40;;
37425;SDS011;23285;50.180;7.036;2023-04-25T13:26:38;9.40;;;2.57;;
37425;SDS011;23285;50.180;7.036;2023-04-25T13:29:25;7.77;;;2.43;;
37425;SDS011;23285;50.180;7.036;2023-04-25T13:32:11;8.07;;;2.57;;
37425;SDS011;23285;50.180;7.036;2023-04-25T13:34:57;7.77;;;2.50;;
37425;SDS011;23285;50.180;7.036;2023-04-25T13:37:43;5.27;;;2.27;;
37425;SDS011;23285;50.180;7.036;2023-04-25T13:40:29;7.43;;;2.37;;
37425;SDS011;23285;50.180;7.036;2023-04-25T13:43:17;8.00;;;2.33;;
37425;SDS011;23285;50.180;7.036;2023-04-25T13:46:04;10.27;;;2.53;;
37425;SDS011;23285;50.180;7.036;2023-04-25T13:48:51;7.83;;;2.23;;
37425;SDS011;23285;50.180;7.036;2023-04-25T13:51:37;6.27;;;2.30;;
37425;SDS011;23285;50.180;7.036;2023-04-25T13:54:24;5.67;;;2.43;;
37425;SDS011;23285;50.180;7.036;2023-04-25T13:57:11;4.37;;;2.03;;
37425;SDS011;23285;50.180;7.036;2023-04-25T13:59:59;5.70;;;2.50;;
37425;SDS011;23285;50.180;7.036;2023-04-25T14:02:51;5.87;;;2.50;;
37425;SDS011;23285;50.180;7.036;2023-04-25T14:05:38;7.20;;;2.67;;
37425;SDS011;23285;50.180;7.036;2023-04-25T14:08:25;9.20;;;2.67;;
37425;SDS011;23285;50.180;7.036;2023-04-25T14:11:11;6.27;;;2.40;;
37425;SDS011;23285;50.180;7.036;2023-04-25T14:13:58;4.83;;;2.37;;
37425;SDS011;23285;50.180;7.036;2023-04-25T14:16:45;5.53;;;2.60;;
37425;SDS011;23285;50.180;7.036;2023-04-25T14:19:32;8.97;;;2.87;;
37425;SDS011;23285;50.180;7.036;2023-04-25T14:22:18;6.10;;;2.60;;
37425;SDS011;23285;50.180;7.036;2023-04-25T14:25:05;6.10;;;2.80;;
37425;SDS011;23285;50.180;7.036;2023-04-25T14:27:52;9.13;;;3.17;;
37425;SDS011;23285;50.180;7.036;2023-04-25T14:30:38;6.37;;;2.50;;
37425;SDS011;23285;50.180;7.036;2023-04-25T14:33:26;9.47;;;3.07;;
37425;SDS011;23285;50.180;7.036;2023-04-25T14:36:12;9.47;;;2.67;;
37425;SDS011;23285;50.180;7.036;2023-04-25T14:39:00;7.97;;;2.33;;
37425;SDS011;23285;50.180;7.036;2023-04-25T14:41:46;7.87;;;2.70;;
37425;SDS011;23285;50.180;7.036;2023-04-25T14:44:33;8.83;;;2.77;;
37425;SDS011;23285;50.180;7.036;2023-04-25T14:47:19;8.70;;;3.00;;
37425;SDS011;23285;50.180;7.036;2023-04-25T14:50:08;9.40;;;3.17;;
37425;SDS011;23285;50.180;7.036;2023-04-25T14:52:54;5.23;;;2.10;;
37425;SDS011;23285;50.180;7.036;2023-04-25T14:55:43;8.23;;;2.30;;
37425;SDS011;23285;50.180;7.036;2023-04-25T14:58:30;5.53;;;2.37;;
37425;SDS011;23285;50.180;7.036;2023-04-25T15:01:17;7.63;;;2.30;;
37425;SDS011;23285;50.180;7.036;2023-04-25T15:04:05;5.47;;;2.33;;
37425;SDS011;23285;50.180;7.036;2023-04-25T15:06:52;7.10;;;2.30;;
37425;SDS011;23285;50.180;7.036;2023-04-25T15:09:39;5.67;;;2.47;;
37425;SDS011;23285;50.180;7.036;2023-04-25T15:12:26;4.93;;;2.20;;
37425;SDS011;23285;50.180;7.036;2023-04-25T15:15:12;4.97;;;1.90;;
37425;SDS011;23285;50.180;7.036;2023-04-25T15:17:59;4.30;;;2.10;;
37425;SDS011;23285;50.180;7.036;2023-04-25T15:20:45;5.50;;;2.30;;
37425;SDS011;23285;50.180;7.036;2023-04-25T15:23:33;12.50;;;2.93;;
37425;SDS011;23285;50.180;7.036;2023-04-25T15:26:20;5.47;;;2.50;;
37425;SDS011;23285;50.180;7.036;2023-04-25T15:29:06;4.80;;;2.07;;
37425;SDS011;23285;50.180;7.036;2023-04-25T15:31:52;5.87;;;2.20;;
37425;SDS011;23285;50.180;7.036;2023-04-25T15:34:39;4.77;;;2.43;;
37425;SDS011;23285;50.180;7.036;2023-04-25T15:37:25;10.10;;;2.53;;
37425;SDS011;23285;50.180;7.036;2023-04-25T15:40:13;7.13;;;2.33;;
37425;SDS011;23285;50.180;7.036;2023-04-25T15:43:01;6.47;;;2.43;;
37425;SDS011;23285;50.180;7.036;2023-04-25T15:45:47;6.47;;;2.77;;
37425;SDS011;23285;50.180;7.036;2023-04-25T15:48:33;5.30;;;2.47;;
37425;SDS011;23285;50.180;7.036;2023-04-25T15:51:19;5.73;;;2.43;;
37425;SDS011;23285;50.180;7.036;2023-04-25T15:54:06;6.67;;;2.90;;
37425;SDS011;23285;50.180;7.036;2023-04-25T15:56:54;5.57;;;2.33;;
37425;SDS011;23285;50.180;7.036;2023-04-25T15:59:41;5.33;;;2.20;;
37425;SDS011;23285;50.180;7.036;2023-04-25T16:02:28;5.37;;;2.10;;
37425;SDS011;23285;50.180;7.036;2023-04-25T16:05:14;7.10;;;2.23;;
37425;SDS011;23285;50.180;7.036;2023-04-25T16:08:01;8.27;;;2.57;;
37425;SDS011;23285;50.180;7.036;2023-04-25T16:10:48;4.87;;;2.70;;
37425;SDS011;23285;50.180;7.036;2023-04-25T16:13:36;8.07;;;2.20;;
37425;SDS011;23285;50.180;7.036;2023-04-25T16:16:22;9.13;;;2.70;;
37425;SDS011;23285;50.180;7.036;2023-04-25T16:19:09;7.97;;;2.47;;
37425;SDS011;23285;50.180;7.036;2023-04-25T16:21:56;5.13;;;2.60;;
37425;SDS011;23285;50.180;7.036;2023-04-25T16:24:42;7.50;;;2.60;;
37425;SDS011;23285;50.180;7.036;2023-04-25T16:27:29;4.77;;;2.47;;
37425;SDS011;23285;50.180;7.036;2023-04-25T16:30:19;6.73;;;2.50;;
37425;SDS011;23285;50.180;7.036;2023-04-25T16:33:05;6.30;;;2.60;;
37425;SDS011;23285;50.180;7.036;2023-04-25T16:35:51;6.57;;;2.50;;
37425;SDS011;23285;50.180;7.036;2023-04-25T16:38:38;6.33;;;2.47;;
37425;SDS011;23285;50.180;7.036;2023-04-25T16:41:24;4.57;;;2.40;;
37425;SDS011;23285;50.180;7.036;2023-04-25T16:44:11;8.83;;;2.83;;
37425;SDS011;23285;50.180;7.036;2023-04-25T16:46:58;8.20;;;2.60;;
37425;SDS011;23285;50.180;7.036;2023-04-25T16:49:45;6.53;;;2.60;;
37425;SDS011;23285;50.180;7.036;2023-04-25T16:52:31;5.90;;;2.53;;
37425;SDS011;23285;50.180;7.036;2023-04-25T16:55:17;8.20;;;2.60;;
37425;SDS011;23285;50.180;7.036;2023-04-25T16:58:03;7.33;;;2.50;;